createdAt,value
2017-07-24T00:01:42.731Z,101030.47
2017-07-24T00:04:11.148Z,101029.58
2017-07-24T00:06:39.572Z,101039.47
2017-07-24T00:09:08.600Z,101032.72
2017-07-24T00:11:36.970Z,101033.48
2017-07-24T00:14:05.415Z,101027.94
2017-07-24T00:16:34.839Z,101023.84
2017-07-24T00:19:03.212Z,101015.58
2017-07-24T00:21:31.579Z,101018.72
2017-07-24T00:24:00.315Z,101011.94
2017-07-24T00:26:28.716Z,101003.81
2017-07-24T00:28:57.103Z,101001.71
2017-07-24T00:31:26.150Z,101000.86
2017-07-24T00:33:54.683Z,101004.34
2017-07-24T00:36:23.114Z,101002.45
2017-07-24T00:38:52.091Z,101009.52
2017-07-24T00:41:21.246Z,101001.76
2017-07-24T00:43:49.697Z,101005.15
2017-07-24T00:46:18.396Z,101001.73
2017-07-24T00:48:46.789Z,101003.31
2017-07-24T00:51:15.184Z,100997.48
2017-07-24T00:53:44.332Z,101002.57
2017-07-24T00:56:12.727Z,100997.06
2017-07-24T00:58:41.175Z,100995.58
2017-07-24T01:01:10.754Z,100996.30
2017-07-24T01:03:39.187Z,100996.08
2017-07-24T01:06:07.624Z,100995.38
2017-07-24T01:08:36.394Z,101003.39
2017-07-24T01:11:04.770Z,100996.58
2017-07-24T01:13:33.165Z,101003.52
2017-07-24T01:16:02.124Z,100998.84
2017-07-24T01:18:30.490Z,100992.75
2017-07-24T01:20:58.838Z,100990.30
2017-07-24T01:23:27.757Z,100988.23
2017-07-24T01:25:56.175Z,100986.78
2017-07-24T01:28:24.561Z,100989.67
2017-07-24T01:30:53.248Z,100988.33
2017-07-24T01:33:21.643Z,100988.72
2017-07-24T01:35:50.063Z,100980.91
2017-07-24T01:38:19.674Z,100982.58
2017-07-24T01:40:48.067Z,100988.72
2017-07-24T01:43:16.456Z,100985.72
2017-07-24T01:45:45.126Z,100987.65
2017-07-24T01:48:13.544Z,100977.75
2017-07-24T01:50:41.951Z,100973.78
2017-07-24T01:53:11.607Z,100972.94
2017-07-24T01:55:39.985Z,100959.23
2017-07-24T01:58:08.359Z,100964.06
2017-07-24T02:00:37.333Z,100961.86
2017-07-24T02:03:05.705Z,100964.59
2017-07-24T02:05:34.113Z,100960.86
2017-07-24T02:08:02.987Z,100956.38
2017-07-24T02:10:31.347Z,100954.58
2017-07-24T02:12:59.727Z,100954.31
2017-07-24T02:15:28.431Z,100949.41
2017-07-24T02:17:56.865Z,100949.25
2017-07-24T02:20:25.486Z,100943.72
2017-07-24T02:22:54.705Z,100933.92
2017-07-24T02:25:23.075Z,100934.82
2017-07-24T02:27:51.450Z,100934.07
2017-07-24T02:30:20.161Z,100935.34
2017-07-24T02:32:48.561Z,100927.92
2017-07-24T02:35:16.970Z,100931.27
2017-07-24T02:37:45.891Z,100927.92
2017-07-24T02:40:14.270Z,100924.77
2017-07-24T02:42:42.647Z,100930.29
2017-07-24T02:45:11.707Z,100923.52
2017-07-24T02:47:40.116Z,100920.99
2017-07-24T02:50:08.524Z,100925.27
2017-07-24T02:52:37.201Z,100924.66
2017-07-24T02:55:05.627Z,100925.55
2017-07-24T02:57:33.986Z,100934.42
2017-07-24T03:00:02.929Z,100934.09
2017-07-24T03:02:32.176Z,100928.28
2017-07-24T03:05:00.566Z,100923.42
2017-07-24T03:07:29.653Z,100925.08
2017-07-24T03:09:58.054Z,100927.16
2017-07-24T03:12:26.516Z,100928.22
2017-07-24T03:14:55.250Z,100912.86
2017-07-24T03:17:24.428Z,100920.42
2017-07-24T03:19:52.867Z,100917.09
2017-07-24T03:22:21.502Z,100913.64
2017-07-24T03:24:49.911Z,100917.89
2017-07-24T03:27:18.292Z,100922.33
2017-07-24T03:29:47.050Z,100917.71
2017-07-24T03:32:15.460Z,100912.97
2017-07-24T03:34:43.837Z,100918.13
2017-07-24T03:37:12.545Z,100905.53
2017-07-24T03:39:40.951Z,100905.80
2017-07-24T03:42:09.300Z,100902.11
2017-07-24T03:44:38.198Z,100901.14
2017-07-24T03:47:06.630Z,100892.28
2017-07-24T03:49:35.037Z,100884.61
2017-07-24T03:52:04.035Z,100888.52
2017-07-24T03:54:32.419Z,100877.41
2017-07-24T03:57:00.848Z,100875.33
2017-07-24T03:59:29.490Z,100867.03
2017-07-24T04:01:57.899Z,100863.90
2017-07-24T04:04:26.311Z,100869.99
2017-07-24T04:06:55.131Z,100862.62
2017-07-24T04:09:23.516Z,100862.84
2017-07-24T04:11:51.904Z,100860.34
2017-07-24T04:14:20.676Z,100857.73
2017-07-24T04:16:49.108Z,100865.13
2017-07-24T04:19:17.531Z,100857.81
2017-07-24T04:21:46.428Z,100859.67
2017-07-24T04:24:14.859Z,100859.91
2017-07-24T04:26:43.238Z,100866.64
2017-07-24T04:29:11.896Z,100856.75
2017-07-24T04:31:40.298Z,100862.02
2017-07-24T04:34:08.719Z,100863.50
2017-07-24T04:36:37.469Z,100858.19
2017-07-24T04:39:05.873Z,100850.70
2017-07-24T04:41:35.098Z,100843.47
2017-07-24T04:44:03.991Z,100838.86
2017-07-24T04:46:32.378Z,100839.11
2017-07-24T04:49:00.824Z,100839.67
2017-07-24T04:51:30.242Z,100844.73
2017-07-24T04:53:58.696Z,100836.62
2017-07-24T04:56:27.081Z,100838.09
2017-07-24T04:58:56.960Z,100833.25
2017-07-24T05:01:25.355Z,100832.92
2017-07-24T05:03:53.912Z,100828.19
2017-07-24T05:06:22.538Z,100825.36
2017-07-24T05:08:50.942Z,100824.48
2017-07-24T05:11:19.327Z,100814.11
2017-07-24T05:13:48.135Z,100818.16
2017-07-24T05:16:16.543Z,100818.46
2017-07-24T05:18:44.944Z,100815.20
2017-07-24T05:21:13.786Z,100819.75
2017-07-24T05:23:42.206Z,100829.78
2017-07-24T05:26:10.652Z,100830.52
2017-07-24T05:28:39.383Z,100823.02
2017-07-24T05:31:07.795Z,100818.39
2017-07-24T05:33:36.211Z,100818.77
2017-07-24T05:36:04.919Z,100817.45
2017-07-24T05:38:33.307Z,100821.82
2017-07-24T05:41:02.557Z,100829.22
2017-07-24T05:43:31.431Z,100836.45
2017-07-24T05:45:59.844Z,100830.31
2017-07-24T05:48:28.259Z,100832.02
2017-07-24T05:50:57.109Z,100830.74
2017-07-24T05:53:25.502Z,100835.88
2017-07-24T05:55:53.960Z,100833.89
2017-07-24T05:58:22.582Z,100828.12
2017-07-24T06:00:50.998Z,100831.41
2017-07-24T06:03:19.416Z,100829.89
2017-07-24T06:05:48.622Z,100828.38
2017-07-24T06:08:17.040Z,100829.37
2017-07-24T06:10:45.461Z,100830.34
2017-07-24T06:13:14.188Z,100830.41
2017-07-24T06:15:42.555Z,100829.77
2017-07-24T06:18:10.995Z,100826.34
2017-07-24T06:20:39.705Z,100823.89
2017-07-24T06:23:08.178Z,100826.97
2017-07-24T06:25:36.628Z,100829.56
2017-07-24T06:28:05.561Z,100825.94
2017-07-24T06:30:34.009Z,100822.23
2017-07-24T06:33:02.412Z,100818.75
2017-07-24T06:35:31.096Z,100830.69
2017-07-24T06:37:59.525Z,100821.64
2017-07-24T06:40:27.932Z,100819.42
2017-07-24T06:42:56.823Z,100814.84
2017-07-24T06:45:25.233Z,100815.81
2017-07-24T06:47:53.712Z,100813.28
2017-07-24T06:50:22.760Z,100809.27
2017-07-24T06:52:51.198Z,100811.52
2017-07-24T06:55:19.606Z,100809.14
2017-07-24T06:57:48.502Z,100806.11
2017-07-24T07:00:16.920Z,100814.16
2017-07-24T07:02:45.399Z,100802.73
2017-07-24T07:05:14.314Z,100796.51
2017-07-24T07:07:42.771Z,100795.28
2017-07-24T07:10:11.988Z,100795.02
2017-07-24T07:12:40.692Z,100797.98
2017-07-24T07:15:09.204Z,100805.30
2017-07-24T07:17:37.640Z,100796.82
2017-07-24T07:20:06.579Z,100802.23
2017-07-24T07:22:35.018Z,100795.45
2017-07-24T07:25:03.607Z,100803.40
2017-07-24T07:27:32.426Z,100800.93
2017-07-24T07:30:00.852Z,100805.00
2017-07-24T07:32:29.277Z,100800.30
2017-07-24T07:34:58.239Z,100796.66
2017-07-24T07:37:26.690Z,100786.97
2017-07-24T07:39:55.165Z,100790.05
2017-07-24T07:42:23.899Z,100790.23
2017-07-24T07:44:52.296Z,100787.97
2017-07-24T07:47:20.749Z,100793.20
2017-07-24T07:49:49.439Z,100792.16
2017-07-24T07:52:17.855Z,100785.63
2017-07-24T07:54:46.305Z,100784.09
2017-07-24T07:57:15.388Z,100784.30
2017-07-24T07:59:43.816Z,100784.41
2017-07-24T08:02:12.221Z,100794.14
2017-07-24T08:04:40.879Z,100794.30
2017-07-24T08:07:09.234Z,100793.19
2017-07-24T08:09:37.652Z,100781.01
2017-07-24T08:12:06.352Z,100782.19
2017-07-24T08:14:34.818Z,100775.56
2017-07-24T08:17:03.246Z,100785.74
2017-07-24T08:19:32.159Z,100783.67
2017-07-24T08:22:00.624Z,100787.83
2017-07-24T08:24:29.015Z,100787.30
2017-07-24T08:26:57.808Z,100782.20
2017-07-24T08:29:26.216Z,100789.76
2017-07-24T08:31:54.625Z,100780.11
2017-07-24T08:34:24.094Z,100793.47
2017-07-24T08:36:52.571Z,100786.45
2017-07-24T08:39:21.025Z,100786.37
2017-07-24T08:41:50.150Z,100775.45
2017-07-24T08:44:18.544Z,100772.22
2017-07-24T08:46:46.904Z,100773.31
2017-07-24T08:49:15.605Z,100766.22
2017-07-24T08:51:44.066Z,100764.94
2017-07-24T08:54:12.502Z,100767.73
2017-07-24T08:56:41.411Z,100760.61
2017-07-24T08:59:09.817Z,100762.33
2017-07-24T09:01:38.245Z,100761.27
2017-07-24T09:04:08.029Z,100765.56
2017-07-24T09:06:36.468Z,100758.73
2017-07-24T09:09:04.847Z,100753.70
2017-07-24T09:11:33.643Z,100753.58
2017-07-24T09:14:02.059Z,100742.99
2017-07-24T09:16:30.495Z,100743.39
2017-07-24T09:18:59.401Z,100749.77
2017-07-24T09:21:27.838Z,100749.20
2017-07-24T09:23:56.320Z,100753.61
2017-07-24T09:26:25.343Z,100744.73
2017-07-24T09:28:53.766Z,100751.05
2017-07-24T09:31:22.314Z,100756.22
2017-07-24T09:33:51.220Z,100749.33
2017-07-24T09:36:19.627Z,100747.74
2017-07-24T09:38:48.824Z,100750.69
2017-07-24T09:41:17.506Z,100746.70
2017-07-24T09:43:45.877Z,100750.05
2017-07-24T09:46:14.258Z,100755.64
2017-07-24T09:48:43.021Z,100753.95
2017-07-24T09:51:11.430Z,100733.94
2017-07-24T09:53:39.883Z,100722.94
2017-07-24T09:56:08.694Z,100734.45
2017-07-24T09:58:37.079Z,100740.69
2017-07-24T10:01:05.434Z,100738.20
2017-07-24T10:03:34.142Z,100734.38
2017-07-24T10:06:02.528Z,100733.39
2017-07-24T10:08:30.929Z,100732.00
2017-07-24T10:11:00.089Z,100727.66
2017-07-24T10:13:28.445Z,100729.36
2017-07-24T10:15:56.856Z,100723.56
2017-07-24T10:18:25.567Z,100721.28
2017-07-24T10:20:54.019Z,100720.53
2017-07-24T10:23:22.431Z,100719.33
2017-07-24T10:25:52.013Z,100721.21
2017-07-24T10:28:20.399Z,100715.44
2017-07-24T10:30:48.819Z,100714.92
2017-07-24T10:33:17.748Z,100712.94
2017-07-24T10:35:46.133Z,100717.78
2017-07-24T10:38:14.555Z,100707.73
2017-07-24T10:40:43.222Z,100706.55
2017-07-24T10:43:11.655Z,100715.84
2017-07-24T10:45:40.037Z,100714.19
2017-07-24T10:48:08.859Z,100716.42
2017-07-24T10:50:37.362Z,100706.79
2017-07-24T10:53:05.796Z,100710.74
2017-07-24T10:55:34.686Z,100710.55
2017-07-24T10:58:03.090Z,100706.75
2017-07-24T11:00:31.509Z,100711.87
2017-07-24T11:03:00.304Z,100706.79
2017-07-24T11:05:28.697Z,100706.08
2017-07-24T11:07:57.996Z,100710.53
2017-07-24T11:10:26.798Z,100708.59
2017-07-24T11:12:55.282Z,100713.73
2017-07-24T11:15:23.680Z,100709.28
2017-07-24T11:17:52.528Z,100706.91
2017-07-24T11:20:20.984Z,100697.60
2017-07-24T11:22:49.395Z,100697.05
2017-07-24T11:25:18.121Z,100684.66
2017-07-24T11:27:46.583Z,100694.81
2017-07-24T11:30:15.031Z,100695.52
2017-07-24T11:32:43.738Z,100691.47
2017-07-24T11:35:12.151Z,100693.84
2017-07-24T11:37:40.627Z,100690.97
2017-07-24T11:40:09.555Z,100684.89
2017-07-24T11:42:38.013Z,100678.06
2017-07-24T11:45:06.438Z,100676.73
2017-07-24T11:47:36.000Z,100682.75
2017-07-24T11:50:04.396Z,100679.44
2017-07-24T11:52:32.758Z,100677.94
2017-07-24T11:55:01.444Z,100676.42
2017-07-24T11:57:29.790Z,100677.05
2017-07-24T11:59:58.148Z,100680.80
2017-07-24T12:02:27.005Z,100681.23
2017-07-24T12:04:55.397Z,100686.67
2017-07-24T12:07:23.738Z,100685.50
2017-07-24T12:09:52.639Z,100682.89
2017-07-24T12:12:20.967Z,100669.91
2017-07-24T12:14:49.317Z,100673.12
2017-07-24T12:17:17.934Z,100672.66
2017-07-24T12:19:46.295Z,100674.95
2017-07-24T12:22:14.691Z,100671.39
2017-07-24T12:24:43.742Z,100668.39
2017-07-24T12:27:12.122Z,100664.40
2017-07-24T12:29:40.508Z,100667.32
2017-07-24T12:32:09.176Z,100665.28
2017-07-24T12:34:37.520Z,100660.39
2017-07-24T12:37:06.717Z,100656.92
2017-07-24T12:39:35.434Z,100662.22
2017-07-24T12:42:04.329Z,100649.75
2017-07-24T12:44:32.663Z,100645.67
2017-07-24T12:47:01.747Z,100648.80
2017-07-24T12:49:30.143Z,100645.45
2017-07-24T12:51:58.517Z,100647.99
2017-07-24T12:54:27.201Z,100638.41
2017-07-24T12:56:55.620Z,100639.11
2017-07-24T12:59:24.007Z,100637.31
2017-07-24T13:01:52.698Z,100639.44
2017-07-24T13:04:21.124Z,100644.73
2017-07-24T13:06:50.304Z,100645.84
2017-07-24T13:09:19.267Z,100643.06
2017-07-24T13:11:47.640Z,100650.64
2017-07-24T13:14:16.058Z,100657.87
2017-07-24T13:16:44.798Z,100656.86
2017-07-24T13:19:13.236Z,100651.28
2017-07-24T13:21:41.633Z,100649.16
2017-07-24T13:24:10.350Z,100649.02
2017-07-24T13:26:38.716Z,100642.02
2017-07-24T13:29:07.066Z,100648.23
2017-07-24T13:31:35.947Z,100647.82
2017-07-24T13:34:04.360Z,100656.41
2017-07-24T13:36:33.587Z,100648.95
2017-07-24T13:39:02.254Z,100646.48
2017-07-24T13:41:30.664Z,100650.34
2017-07-24T13:43:59.308Z,100653.98
2017-07-24T13:46:28.857Z,100656.91
2017-07-24T13:48:57.305Z,100656.58
2017-07-24T13:51:25.770Z,100647.97
2017-07-24T13:53:54.591Z,100651.22
2017-07-24T13:56:22.952Z,100654.28
2017-07-24T13:58:52.066Z,100655.57
2017-07-24T14:01:20.858Z,100663.78
2017-07-24T14:03:49.222Z,100670.47
2017-07-24T14:06:17.571Z,100683.79
2017-07-24T14:08:46.349Z,100678.49
2017-07-24T14:11:14.702Z,100683.59
2017-07-24T14:13:43.084Z,100678.86
2017-07-24T14:16:11.943Z,100667.90
2017-07-24T14:18:40.292Z,100671.67
2017-07-24T14:21:08.638Z,100673.27
2017-07-24T14:23:37.297Z,100659.19
2017-07-24T14:26:05.684Z,100665.52
2017-07-24T14:28:34.152Z,100662.66
2017-07-24T14:31:02.791Z,100662.84
2017-07-24T14:33:31.139Z,100664.66
2017-07-24T14:35:59.470Z,100664.55
2017-07-24T14:38:29.118Z,100659.66
2017-07-24T14:40:57.458Z,100663.06
2017-07-24T14:43:26.574Z,100655.99
2017-07-24T14:45:55.369Z,100665.34
2017-07-24T14:48:23.715Z,100665.21
2017-07-24T14:50:52.068Z,100666.77
2017-07-24T14:53:20.958Z,100665.69
2017-07-24T14:55:49.322Z,100656.23
2017-07-24T14:58:17.673Z,100659.17
2017-07-24T15:00:46.558Z,100658.59
2017-07-24T15:03:14.897Z,100660.69
2017-07-24T15:05:43.235Z,100661.11
2017-07-24T15:08:11.993Z,100665.81
2017-07-24T15:10:41.125Z,100663.92
2017-07-24T15:13:09.534Z,100662.70
2017-07-24T15:15:38.195Z,100654.64
2017-07-24T15:18:06.550Z,100658.98
2017-07-24T15:20:34.900Z,100659.49
2017-07-24T15:23:03.774Z,100652.77
2017-07-24T15:25:32.151Z,100644.44
2017-07-24T15:28:00.485Z,100644.55
2017-07-24T15:30:29.152Z,100650.56
2017-07-24T15:32:57.501Z,100649.49
2017-07-24T15:35:25.836Z,100646.53
2017-07-24T15:37:54.719Z,100644.23
2017-07-24T15:40:23.066Z,100642.80
2017-07-24T15:42:52.177Z,100645.47
2017-07-24T15:45:22.414Z,100638.35
2017-07-24T15:47:50.810Z,100640.53
2017-07-24T15:50:19.201Z,100642.99
2017-07-24T15:52:47.910Z,100636.17
2017-07-24T15:55:16.304Z,100630.70
2017-07-24T15:57:46.495Z,100637.22
2017-07-24T16:00:15.446Z,100636.86
2017-07-24T16:02:43.859Z,100641.20
2017-07-24T16:05:12.297Z,100629.00
2017-07-24T16:07:41.252Z,100634.82
2017-07-24T16:10:09.644Z,100637.44
2017-07-24T16:12:38.016Z,100643.05
2017-07-24T16:15:06.685Z,100641.69
2017-07-24T16:17:35.080Z,100646.55
2017-07-24T16:20:03.446Z,100638.70
2017-07-24T16:22:32.118Z,100643.58
2017-07-24T16:25:00.484Z,100640.09
2017-07-24T16:27:28.852Z,100640.56
2017-07-24T16:29:57.966Z,100637.92
2017-07-24T16:32:26.325Z,100637.83
2017-07-24T16:34:54.918Z,100633.69
2017-07-24T16:37:23.600Z,100634.86
2017-07-24T16:39:51.957Z,100631.38
2017-07-24T16:42:21.140Z,100633.48
2017-07-24T16:44:49.828Z,100635.11
2017-07-24T16:47:18.233Z,100632.94
2017-07-24T16:49:46.579Z,100631.89
2017-07-24T16:54:42.965Z,100632.02
2017-07-24T16:57:11.345Z,100641.09
2017-07-24T16:59:40.148Z,100638.41
2017-07-24T17:02:08.536Z,100632.44
2017-07-24T17:04:36.892Z,100630.33
2017-07-24T17:07:05.575Z,100632.51
2017-07-24T17:09:33.938Z,100625.14
2017-07-24T17:12:03.062Z,100619.58
2017-07-24T17:14:31.881Z,100616.43
2017-07-24T17:17:00.243Z,100616.59
2017-07-24T17:19:28.618Z,100614.25
2017-07-24T17:21:57.306Z,100625.17
2017-07-24T17:24:25.683Z,100629.63
2017-07-24T17:26:54.108Z,100621.64
2017-07-24T17:29:22.964Z,100625.69
2017-07-24T17:31:51.325Z,100624.84
2017-07-24T17:34:19.658Z,100624.53
2017-07-24T17:36:48.613Z,100625.32
2017-07-24T17:39:16.959Z,100625.06
2017-07-24T17:41:46.078Z,100628.33
2017-07-24T17:44:14.868Z,100629.31
2017-07-24T17:46:43.271Z,100625.00
2017-07-24T17:49:11.642Z,100631.29
2017-07-24T17:51:40.327Z,100637.11
2017-07-24T17:54:08.700Z,100643.37
2017-07-24T17:56:37.055Z,100638.28
2017-07-24T17:59:06.007Z,100645.69
2017-07-24T18:01:34.379Z,100642.33
2017-07-24T18:04:02.717Z,100643.60
2017-07-24T18:06:31.611Z,100638.59
2017-07-24T18:08:59.991Z,100638.84
2017-07-24T18:11:28.369Z,100644.07
2017-07-24T18:13:57.275Z,100650.42
2017-07-24T18:16:25.636Z,100647.96
2017-07-24T18:18:54.006Z,100652.50
2017-07-24T18:21:22.901Z,100648.91
2017-07-24T18:23:51.254Z,100652.55
2017-07-24T18:26:19.615Z,100655.38
2017-07-24T18:28:48.381Z,100653.03
2017-07-24T18:31:16.771Z,100653.89
2017-07-24T18:33:45.188Z,100647.37
2017-07-24T18:36:14.640Z,100648.87
2017-07-24T18:38:43.050Z,100654.89
2017-07-24T18:41:11.413Z,100653.09
2017-07-24T18:43:40.427Z,100655.23
2017-07-24T18:46:08.795Z,100662.14
2017-07-24T18:48:37.141Z,100655.61
2017-07-24T18:51:05.949Z,100658.98
2017-07-24T18:53:34.300Z,100662.93
2017-07-24T18:56:02.665Z,100666.80
2017-07-24T18:58:31.323Z,100670.41
2017-07-24T19:00:59.695Z,100666.06
2017-07-24T19:03:28.072Z,100669.14
2017-07-24T19:05:57.107Z,100667.16
2017-07-24T19:08:25.481Z,100674.85
2017-07-24T19:10:53.834Z,100675.17
2017-07-24T19:13:22.691Z,100671.52
2017-07-24T19:15:51.062Z,100673.67
2017-07-24T19:18:19.420Z,100673.67
2017-07-24T19:20:48.311Z,100680.16
2017-07-24T19:23:16.673Z,100681.81
2017-07-24T19:25:45.032Z,100677.73
2017-07-24T19:28:14.036Z,100683.86
2017-07-24T19:30:43.166Z,100689.98
2017-07-24T19:33:11.567Z,100689.88
2017-07-24T19:35:40.323Z,100691.55
2017-07-24T19:38:08.674Z,100689.34
2017-07-24T19:40:37.062Z,100686.89
2017-07-24T19:43:06.520Z,100685.92
2017-07-24T19:45:34.896Z,100691.06
2017-07-24T19:48:03.277Z,100686.84
2017-07-24T19:50:32.982Z,100692.47
2017-07-24T19:53:01.331Z,100689.84
2017-07-24T19:55:29.699Z,100693.16
2017-07-24T19:57:58.376Z,100694.23
2017-07-24T20:00:26.726Z,100690.03
2017-07-24T20:02:55.058Z,100689.27
2017-07-24T20:05:23.731Z,100693.01
2017-07-24T20:07:52.855Z,100697.86
2017-07-24T20:10:21.217Z,100698.02
2017-07-24T20:12:50.145Z,100693.66
2017-07-24T20:15:18.503Z,100690.11
2017-07-24T20:17:46.846Z,100699.09
2017-07-24T20:20:15.486Z,100692.40
2017-07-24T20:22:43.838Z,100698.09
2017-07-24T20:25:12.195Z,100700.18
2017-07-24T20:27:41.051Z,100699.89
2017-07-24T20:30:09.424Z,100703.52
2017-07-24T20:32:37.780Z,100696.14
2017-07-24T20:35:06.635Z,100697.66
2017-07-24T20:37:35.000Z,100694.91
2017-07-24T20:40:03.377Z,100698.78
2017-07-24T20:42:32.162Z,100697.86
2017-07-24T20:45:00.533Z,100695.19
2017-07-24T20:47:28.889Z,100700.23
2017-07-24T20:49:57.797Z,100700.42
2017-07-24T20:52:26.170Z,100697.86
2017-07-24T20:54:54.553Z,100691.91
2017-07-24T20:57:23.250Z,100694.30
2017-07-24T20:59:51.617Z,100693.73
2017-07-24T21:02:19.993Z,100694.69
2017-07-24T21:04:48.628Z,100690.56
2017-07-24T21:07:16.986Z,100692.70
2017-07-24T21:09:45.339Z,100690.87
2017-07-24T21:12:14.098Z,100686.67
2017-07-24T21:14:42.482Z,100695.56
2017-07-24T21:17:10.856Z,100690.48
2017-07-24T21:19:39.853Z,100690.83
2017-07-24T21:22:08.198Z,100688.23
2017-07-24T21:24:36.559Z,100687.23
2017-07-24T21:27:05.520Z,100686.78
2017-07-24T21:29:34.003Z,100686.44
2017-07-24T21:32:02.391Z,100680.09
2017-07-24T21:34:31.146Z,100677.19
2017-07-24T21:36:59.529Z,100676.20
2017-07-24T21:39:27.910Z,100676.16
2017-07-24T21:41:56.828Z,100676.08
2017-07-24T21:44:25.401Z,100676.14
2017-07-24T21:46:53.754Z,100675.00
2017-07-24T21:49:22.552Z,100673.55
2017-07-24T21:51:50.925Z,100679.46
2017-07-24T21:54:19.274Z,100671.26
2017-07-24T21:56:48.190Z,100667.37
2017-07-24T21:59:16.547Z,100668.22
2017-07-24T22:01:44.895Z,100674.84
2017-07-24T22:04:13.746Z,100672.70
2017-07-24T22:06:42.091Z,100666.05
2017-07-24T22:09:10.447Z,100664.80
2017-07-24T22:11:39.278Z,100667.18
2017-07-24T22:14:07.640Z,100663.50
2017-07-24T22:16:35.983Z,100668.77
2017-07-24T22:19:04.738Z,100666.70
2017-07-24T22:21:33.092Z,100666.77
2017-07-24T22:24:01.443Z,100670.46
2017-07-24T22:26:30.268Z,100668.25
2017-07-24T22:28:59.393Z,100667.10
2017-07-24T22:31:27.730Z,100663.06
2017-07-24T22:33:56.274Z,100659.36
2017-07-24T22:36:24.621Z,100654.16
2017-07-24T22:38:52.981Z,100658.47
2017-07-24T22:41:21.513Z,100655.16
2017-07-24T22:43:49.847Z,100650.34
2017-07-24T22:46:18.197Z,100648.62
2017-07-24T22:48:47.121Z,100644.19
2017-07-24T22:51:15.477Z,100644.45
2017-07-24T22:53:43.815Z,100644.50
2017-07-24T22:56:12.330Z,100647.13
2017-07-24T22:58:40.700Z,100650.34
2017-07-24T23:01:09.055Z,100646.59
2017-07-24T23:03:37.581Z,100639.50
2017-07-24T23:06:05.943Z,100635.10
2017-07-24T23:08:34.334Z,100631.97
2017-07-24T23:11:03.245Z,100630.48
2017-07-24T23:13:31.611Z,100629.97
2017-07-24T23:15:59.956Z,100626.17
2017-07-24T23:18:28.705Z,100621.65
2017-07-24T23:20:57.044Z,100625.12
2017-07-24T23:23:25.383Z,100620.89
2017-07-24T23:25:53.912Z,100623.60
2017-07-24T23:28:22.266Z,100620.55
2017-07-24T23:30:50.632Z,100626.17
2017-07-24T23:33:19.404Z,100625.39
2017-07-24T23:35:47.772Z,100622.88
2017-07-24T23:38:16.119Z,100615.05
2017-07-24T23:40:44.774Z,100614.97
2017-07-24T23:43:13.106Z,100613.41
2017-07-24T23:45:41.453Z,100608.87
2017-07-24T23:48:10.020Z,100602.77
2017-07-24T23:50:38.379Z,100597.03
2017-07-24T23:53:06.725Z,100594.06
2017-07-24T23:55:35.723Z,100599.70
2017-07-24T23:58:04.077Z,100600.89
